The Deacon — WAK9812 — position and weather

sailwx.info

Track history (hours):
 
Tides and Currents Weather Stations Pressure Air Temp Water Temp Dewpoint Dewpoint Depression Visibility Wind Speed Wind Dir Waves Ship Positions

The Deacon

Owner: G & H Towing Company, GALVESTON, TX. More information available from US FCC via Universal Licensing System and Coast Guard Vessel Documentation Center.

Last reported at 2018-Feb-21 04:24 UTC. Time now 2018-Feb-23 16:04 UTC.
Position N 29°44' W 095°03'.

Length 27 m; draft 5.2 m.

Type: Tug. MMSI: 366922110.

Date/timePositionNaut miles runAvg speedWind from/ knotsBaromVisibWave heightAir tempDewpointWater temp
2018-Feb-21 04:24N 29°44' W 095°03'3 7.5
2018-Feb-21 03:58N 29°42' W 095°01'1 3.2
2018-Feb-21 03:30N 29°41' W 094°60'0 0.0
2018-Feb-21 02:36N 29°41' W 094°60'0 0.0
2018-Feb-21 02:24N 29°41' W 094°60'0 0.0
2018-Feb-21 02:00N 29°41' W 094°60'2 4.0
2018-Feb-21 01:30N 29°42' W 095°01'1 1.4
2018-Feb-21 00:36N 29°44' W 095°01'0 1.8
2018-Feb-21 00:19N 29°43' W 095°01'6 0.4
2018-Feb-20 08:47N 29°44' W 095°08'0 0.1
2018-Feb-20 08:22N 29°44' W 095°08'0 0.0
2018-Feb-19 22:25N 29°44' W 095°08'3 4.9
2018-Feb-19 21:48N 29°46' W 095°05'4 8.1
2018-Feb-19 21:17N 29°43' W 095°01'2 9.1
2018-Feb-19 21:01N 29°41' W 094°59'1 2.3
2018-Feb-19 20:30N 29°41' W 095°01'0 0.0
2018-Feb-19 20:00N 29°41' W 095°01'1 2.4
2018-Feb-19 19:30N 29°41' W 094°59'4 6.0
2018-Feb-19 18:47N 29°44' W 095°03'3 0.7
2018-Feb-19 14:20N 29°45' W 095°07'0 0.0
2018-Feb-19 13:56N 29°45' W 095°07'2 3.8
2018-Feb-19 13:30N 29°44' W 095°08'0 1.0
2018-Feb-19 13:00N 29°44' W 095°09'0 0.2
2018-Feb-19 11:42N 29°44' W 095°09'0 0.1
2018-Feb-19 09:54N 29°44' W 095°09'2 5.0
2018-Feb-19 09:30N 29°45' W 095°07'0 0.0
2018-Feb-19 09:00N 29°45' W 095°07'0 0.0
2018-Feb-19 08:30N 29°45' W 095°07'0 0.0
2018-Feb-19 08:00N 29°45' W 095°07'0 0.0
2018-Feb-19 07:30N 29°45' W 095°07'0 0.0
2018-Feb-19 07:00N 29°45' W 095°07'0 0.0
2018-Feb-19 06:30N 29°45' W 095°07'0 0.0
2018-Feb-19 06:00N 29°45' W 095°07'0 0.0
2018-Feb-19 05:30N 29°45' W 095°07'0 0.0
2018-Feb-19 04:54N 29°45' W 095°07'5 0.2
2018-Feb-18 01:42N 29°44' W 095°01'2 7.9
2018-Feb-18 01:30N 29°42' W 095°01'2 2.9
2018-Feb-18 00:57N 29°41' W 094°60'0 0.0
2018-Feb-18 00:30N 29°41' W 094°60'0 0.0
2018-Feb-18 00:00N 29°41' W 094°60'0 0.0
2018-Feb-17 23:31N 29°41' W 094°60'1 2.5
2018-Feb-17 23:01N 29°40' W 094°59'3 6.3
2018-Feb-17 22:31N 29°37' W 094°57'3 5.8
2018-Feb-17 21:58N 29°37' W 095°01'0 0.0
2018-Feb-17 21:29N 29°37' W 095°01'0 0.7
2018-Feb-17 21:00N 29°37' W 095°01'0 0.1
2018-Feb-17 20:30N 29°37' W 095°01'1 1.8
2018-Feb-17 20:00N 29°37' W 095°00'0 0.2
2018-Feb-17 19:30N 29°37' W 095°00'2 5.0
2018-Feb-17 19:01N 29°38' W 094°58'5 9.2
2018-Feb-17 18:30N 29°42' W 095°00'1 1.7
2018-Feb-17 17:56N 29°42' W 095°01'0 0.0
2018-Feb-17 12:32N 29°42' W 095°01'0 0.0
2018-Feb-17 12:08N 29°42' W 095°01'0 0.0
2018-Feb-17 07:02N 29°42' W 095°01'0 0.0
2018-Feb-17 06:02N 29°42' W 095°01'0 0.0
2018-Feb-17 04:56N 29°42' W 095°01'0 0.0
2018-Feb-17 04:26N 29°42' W 095°01'0 0.0
2018-Feb-17 02:38N 29°42' W 095°01'0 0.0
2018-Feb-17 02:20N 29°42' W 095°01'0 0.0
2018-Feb-17 01:56N 29°42' W 095°01'0 0.0
2018-Feb-17 00:11N 29°42' W 095°01'0 0.0
2018-Feb-16 23:56N 29°42' W 095°01'0 0.0
2018-Feb-16 23:23N 29°42' W 095°01'0 0.0
2018-Feb-16 22:56N 29°42' W 095°01'0 0.0
2018-Feb-16 22:26N 29°42' W 095°01'1 3.0
2018-Feb-16 21:59N 29°44' W 095°01'5 1.9
2018-Feb-16 19:15N 29°44' W 095°07'0 0.6
2018-Feb-16 18:47N 29°44' W 095°08'0 0.1
2018-Feb-16 18:29N 29°44' W 095°08'2 3.3
2018-Feb-16 17:55N 29°45' W 095°10'0 0.2
2018-Feb-16 17:26N 29°45' W 095°10'0 0.0
2018-Feb-16 17:00N 29°45' W 095°10'  
2018-Feb-12 05:02N 29°44' W 095°01'1 3.4
2018-Feb-12 04:46N 29°43' W 095°01'1 1.7
2018-Feb-12 04:25N 29°42' W 095°01'1 3.6
2018-Feb-12 04:00N 29°41' W 095°00'0 0.2
2018-Feb-12 03:25N 29°41' W 095°00'1 3.5
2018-Feb-12 03:00N 29°41' W 094°59'2 4.8
2018-Feb-12 02:30N 29°42' W 095°01'  
Track history (hours):
 
Tides and Currents Weather Stations Pressure Air Temp Water Temp Dewpoint Dewpoint Depression Visibility Wind Speed Wind Dir Waves Ship Positions

The Deacon

Owner: G & H Towing Company, GALVESTON, TX. More information available from US FCC via Universal Licensing System and Coast Guard Vessel Documentation Center.

Last reported at 2018-Feb-21 04:24 UTC. Time now 2018-Feb-23 16:04 UTC.
Position N 29°44' W 095°03'.

Length 27 m; draft 5.2 m.

Type: Tug. MMSI: 366922110.

Date/timePositionNaut miles runAvg speedWind from/ knotsBaromVisibWave heightAir tempDewpointWater temp
2018-Feb-21 04:24N 29°44' W 095°03'3 7.5
2018-Feb-21 03:58N 29°42' W 095°01'1 3.2
2018-Feb-21 03:30N 29°41' W 094°60'0 0.0
2018-Feb-21 02:36N 29°41' W 094°60'0 0.0
2018-Feb-21 02:24N 29°41' W 094°60'0 0.0
2018-Feb-21 02:00N 29°41' W 094°60'2 4.0
2018-Feb-21 01:30N 29°42' W 095°01'1 1.4
2018-Feb-21 00:36N 29°44' W 095°01'0 1.8
2018-Feb-21 00:19N 29°43' W 095°01'6 0.4
2018-Feb-20 08:47N 29°44' W 095°08'0 0.1
2018-Feb-20 08:22N 29°44' W 095°08'0 0.0
2018-Feb-19 22:25N 29°44' W 095°08'3 4.9
2018-Feb-19 21:48N 29°46' W 095°05'4 8.1
2018-Feb-19 21:17N 29°43' W 095°01'2 9.1
2018-Feb-19 21:01N 29°41' W 094°59'1 2.3
2018-Feb-19 20:30N 29°41' W 095°01'0 0.0
2018-Feb-19 20:00N 29°41' W 095°01'1 2.4
2018-Feb-19 19:30N 29°41' W 094°59'4 6.0
2018-Feb-19 18:47N 29°44' W 095°03'3 0.7
2018-Feb-19 14:20N 29°45' W 095°07'0 0.0
2018-Feb-19 13:56N 29°45' W 095°07'2 3.8
2018-Feb-19 13:30N 29°44' W 095°08'0 1.0
2018-Feb-19 13:00N 29°44' W 095°09'0 0.2
2018-Feb-19 11:42N 29°44' W 095°09'0 0.1
2018-Feb-19 09:54N 29°44' W 095°09'2 5.0
2018-Feb-19 09:30N 29°45' W 095°07'0 0.0
2018-Feb-19 09:00N 29°45' W 095°07'0 0.0
2018-Feb-19 08:30N 29°45' W 095°07'0 0.0
2018-Feb-19 08:00N 29°45' W 095°07'0 0.0
2018-Feb-19 07:30N 29°45' W 095°07'0 0.0
2018-Feb-19 07:00N 29°45' W 095°07'0 0.0
2018-Feb-19 06:30N 29°45' W 095°07'0 0.0
2018-Feb-19 06:00N 29°45' W 095°07'0 0.0
2018-Feb-19 05:30N 29°45' W 095°07'0 0.0
2018-Feb-19 04:54N 29°45' W 095°07'5 0.2
2018-Feb-18 01:42N 29°44' W 095°01'2 7.9
2018-Feb-18 01:30N 29°42' W 095°01'2 2.9
2018-Feb-18 00:57N 29°41' W 094°60'0 0.0
2018-Feb-18 00:30N 29°41' W 094°60'0 0.0
2018-Feb-18 00:00N 29°41' W 094°60'0 0.0
2018-Feb-17 23:31N 29°41' W 094°60'1 2.5
2018-Feb-17 23:01N 29°40' W 094°59'3 6.3
2018-Feb-17 22:31N 29°37' W 094°57'3 5.8
2018-Feb-17 21:58N 29°37' W 095°01'0 0.0
2018-Feb-17 21:29N 29°37' W 095°01'0 0.7
2018-Feb-17 21:00N 29°37' W 095°01'0 0.1
2018-Feb-17 20:30N 29°37' W 095°01'1 1.8
2018-Feb-17 20:00N 29°37' W 095°00'0 0.2
2018-Feb-17 19:30N 29°37' W 095°00'2 5.0
2018-Feb-17 19:01N 29°38' W 094°58'5 9.2
2018-Feb-17 18:30N 29°42' W 095°00'1 1.7
2018-Feb-17 17:56N 29°42' W 095°01'0 0.0
2018-Feb-17 12:32N 29°42' W 095°01'0 0.0
2018-Feb-17 12:08N 29°42' W 095°01'0 0.0
2018-Feb-17 07:02N 29°42' W 095°01'0 0.0
2018-Feb-17 06:02N 29°42' W 095°01'0 0.0
2018-Feb-17 04:56N 29°42' W 095°01'0 0.0
2018-Feb-17 04:26N 29°42' W 095°01'0 0.0
2018-Feb-17 02:38N 29°42' W 095°01'0 0.0
2018-Feb-17 02:20N 29°42' W 095°01'0 0.0
2018-Feb-17 01:56N 29°42' W 095°01'0 0.0
2018-Feb-17 00:11N 29°42' W 095°01'0 0.0
2018-Feb-16 23:56N 29°42' W 095°01'0 0.0
2018-Feb-16 23:23N 29°42' W 095°01'0 0.0
2018-Feb-16 22:56N 29°42' W 095°01'0 0.0
2018-Feb-16 22:26N 29°42' W 095°01'1 3.0
2018-Feb-16 21:59N 29°44' W 095°01'5 1.9
2018-Feb-16 19:15N 29°44' W 095°07'0 0.6
2018-Feb-16 18:47N 29°44' W 095°08'0 0.1
2018-Feb-16 18:29N 29°44' W 095°08'2 3.3
2018-Feb-16 17:55N 29°45' W 095°10'0 0.2
2018-Feb-16 17:26N 29°45' W 095°10'0 0.0
2018-Feb-16 17:00N 29°45' W 095°10'  
2018-Feb-12 05:02N 29°44' W 095°01'1 3.4
2018-Feb-12 04:46N 29°43' W 095°01'1 1.7
2018-Feb-12 04:25N 29°42' W 095°01'1 3.6
2018-Feb-12 04:00N 29°41' W 095°00'0 0.2
2018-Feb-12 03:25N 29°41' W 095°00'1 3.5
2018-Feb-12 03:00N 29°41' W 094°59'2 4.8
2018-Feb-12 02:30N 29°42' W 095°01'  

Dump ship's entire track history